AirNav   Air Wisconsin Up To $57,000 Bonus
 
 798 users online  

MS29 Pace Airstrip
Canton, Mississippi, USA

GOING TO CANTON?


FAA INFORMATION EFFECTIVE 09 SEPTEMBER 2021

Location

FAA Identifier: MS29
Lat/Long: 32-36-07.0000N 089-51-50.0000W
32-36.116667N 089-51.833333W
32.6019444,-89.8638889
(estimated)
Elevation: 350 ft. / 107 m (estimated)
From city: 8 miles E of CANTON, MS
Time zone: UTC -5 (UTC -6 during Standard Time)
Zip code: 39046

Airport Operations

Airport use: Private use. Permission required prior to landing
Activation date: 05/2006
Control tower: no
ARTCC: MEMPHIS CENTER
FSS: GREENWOOD FLIGHT SERVICE STATION
Attendance: UNATNDD
Wind indicator: yes
Segmented circle: no

Airport Communications

WX AWOS-3PT at MBO (16 nm SW): 119.125 (601-605-8137)

Nearby radio navigation aids

VOR radial/distance  VOR name  Freq  Var
MHZr051/15.6MAGNOLIA VORTAC113.2001W

Airport Services

Runway Information

Runway 3/21

Dimensions: 3175 x 100 ft. / 968 x 30 m
Surface: turf
RUNWAY 3  RUNWAY 21
Traffic pattern: leftleft

Airport Ownership and Management from official FAA records

Ownership: Privately-owned
Owner: WILLIAM PACE
P.O. BOX 1317
RIDGELAND, MS 39158
Phone 601-898-3004
Manager: WILLIAM PACE
P.O. BOX 1317
RIDGELAND, MS 39158
Phone 601-898-3004

Additional Remarks

FOR CD CTC JACKSON APCH AT 601-965-4625, WHEN APCH CLSD CTC MEMPHIS ARTCC AT 901-368-8453/8449.

Instrument Procedures

There are no published instrument procedures at MS29.

Some nearby airports with instrument procedures:

KMBO - Bruce Campbell Field Airport (16 nm SW)
KJAN - Jackson-Medgar Wiley Evers International Airport (20 nm SW)
KHKS - Hawkins Field Airport (24 nm SW)
19M - C A Moore Airport (32 nm N)
KJVW - John Bell Williams Airport (33 nm SW)
 
Loc | Ops | Rwys | IFR | FBO | Links
Com | Nav | Svcs | Stats | Notes
Area around MS29 (Pace Airstrip)
 
Road maps at: MapQuest Bing Google
 
Aerial photo
No photo
 
Sectional chart

 
Airport distance calculator
Flying to Pace Airstrip? Find the distance to fly.

From to MS29

Sunrise and sunset
Times for 23-Sep-2021
 Local
(UTC-5)
 Zulu
(UTC)
Morning civil twilight06:2511:25
Sunrise06:4911:49
Sunset18:5423:54
Evening civil twilight19:1900:19

Current date and time
Zulu (UTC)  24-Sep-2021 04:36:28
Local (UTC-5)  23-Sep-2021 23:36:28
 
METAR
KMBO 
16nm SW 
230915Z AUTO 00000KT 2 1/2SM BR FEW050 12/12 A3010 RMK AO2 VIS 3/4V5
KJAN 
20nm SW 
240354Z 00000KT 10SM CLR 14/12 A3009 RMK AO2 SLP186 T01390117
KHKS 
24nm SW 
240353Z AUTO 00000KT 10SM CLR 15/12 A3009 RMK AO2 SLP183 T01500117 $
TAF
KJAN 
20nm SW 
231720Z 2318/2418 36008KT P6SM SKC
KHKS 
24nm SW 
231720Z 2318/2418 36006KT P6SM SKC
NOTAMs
Click for the latest NOTAMs
NOTAMs are issued by the DoD/FAA and will open in a separate window not controlled by AirNav.

 

 
 

Would you like to see your business listed on this page?

 If your business provides an interesting product or service to pilots, flight crews, aircraft, or users of the Pace Airstrip, you should consider listing it here.  To start the listing process, click on the button below
 
Add a business
 

Other Pages about Pace Airstrip

Update a link
 
Copyright © AirNav, LLC. All rights reserved. Privacy Policy  Contact